sensor_id;sensor_type;location;lat;lon;timestamp;temperature;humidity
48208;DHT22;33997;53.278;9.708;2024-02-28T00:01:20;2.10;91.80
48208;DHT22;33997;53.278;9.708;2024-02-28T00:03:45;2.00;91.70
48208;DHT22;33997;53.278;9.708;2024-02-28T00:06:12;1.90;90.90
48208;DHT22;33997;53.278;9.708;2024-02-28T00:08:37;2.00;91.10
48208;DHT22;33997;53.278;9.708;2024-02-28T00:11:03;2.00;91.00
48208;DHT22;33997;53.278;9.708;2024-02-28T00:13:28;1.90;91.00
48208;DHT22;33997;53.278;9.708;2024-02-28T00:15:54;1.90;91.00
48208;DHT22;33997;53.278;9.708;2024-02-28T00:18:19;1.90;91.10
48208;DHT22;33997;53.278;9.708;2024-02-28T00:20:45;1.90;91.40
48208;DHT22;33997;53.278;9.708;2024-02-28T00:23:10;1.90;91.40
48208;DHT22;33997;53.278;9.708;2024-02-28T00:25:36;1.90;91.60
48208;DHT22;33997;53.278;9.708;2024-02-28T00:28:01;1.90;91.60
48208;DHT22;33997;53.278;9.708;2024-02-28T00:30:27;1.90;91.60
48208;DHT22;33997;53.278;9.708;2024-02-28T00:32:54;1.80;91.80
48208;DHT22;33997;53.278;9.708;2024-02-28T00:35:19;1.70;91.90
48208;DHT22;33997;53.278;9.708;2024-02-28T00:37:45;1.60;91.80
48208;DHT22;33997;53.278;9.708;2024-02-28T00:40:11;1.50;92.10
48208;DHT22;33997;53.278;9.708;2024-02-28T00:42:36;1.40;92.40
48208;DHT22;33997;53.278;9.708;2024-02-28T00:45:02;1.40;92.50
48208;DHT22;33997;53.278;9.708;2024-02-28T00:47:28;1.40;92.50
48208;DHT22;33997;53.278;9.708;2024-02-28T00:49:53;1.50;92.60
48208;DHT22;33997;53.278;9.708;2024-02-28T00:52:19;1.50;92.60
48208;DHT22;33997;53.278;9.708;2024-02-28T00:54:44;1.50;92.70
48208;DHT22;33997;53.278;9.708;2024-02-28T00:57:10;1.60;92.60
48208;DHT22;33997;53.278;9.708;2024-02-28T00:59:35;1.60;92.80
48208;DHT22;33997;53.278;9.708;2024-02-28T01:02:01;1.60;92.80
48208;DHT22;33997;53.278;9.708;2024-02-28T01:04:26;1.60;92.80
48208;DHT22;33997;53.278;9.708;2024-02-28T01:06:52;1.70;92.70
48208;DHT22;33997;53.278;9.708;2024-02-28T01:09:17;1.70;92.60
48208;DHT22;33997;53.278;9.708;2024-02-28T01:11:43;1.70;92.80
48208;DHT22;33997;53.278;9.708;2024-02-28T01:14:08;1.70;92.50
48208;DHT22;33997;53.278;9.708;2024-02-28T01:16:34;1.70;92.40
48208;DHT22;33997;53.278;9.708;2024-02-28T01:18:59;1.70;92.50
48208;DHT22;33997;53.278;9.708;2024-02-28T01:21:25;1.70;92.60
48208;DHT22;33997;53.278;9.708;2024-02-28T01:23:51;1.70;92.50
48208;DHT22;33997;53.278;9.708;2024-02-28T01:26:17;1.70;92.50
48208;DHT22;33997;53.278;9.708;2024-02-28T01:28:45;1.70;92.50
48208;DHT22;33997;53.278;9.708;2024-02-28T01:31:10;1.70;92.50
48208;DHT22;33997;53.278;9.708;2024-02-28T01:33:36;1.60;92.60
48208;DHT22;33997;53.278;9.708;2024-02-28T01:36:01;1.60;92.60
48208;DHT22;33997;53.278;9.708;2024-02-28T01:38:27;1.50;92.60
48208;DHT22;33997;53.278;9.708;2024-02-28T01:40:52;1.60;92.80
48208;DHT22;33997;53.278;9.708;2024-02-28T01:43:18;1.50;92.80
48208;DHT22;33997;53.278;9.708;2024-02-28T01:45:43;1.50;92.80
48208;DHT22;33997;53.278;9.708;2024-02-28T01:48:10;1.50;92.70
48208;DHT22;33997;53.278;9.708;2024-02-28T01:50:37;1.50;92.60
48208;DHT22;33997;53.278;9.708;2024-02-28T01:53:04;1.50;92.70
48208;DHT22;33997;53.278;9.708;2024-02-28T01:55:31;1.50;92.90
48208;DHT22;33997;53.278;9.708;2024-02-28T01:57:56;1.50;92.90
48208;DHT22;33997;53.278;9.708;2024-02-28T02:00:22;1.50;93.00
48208;DHT22;33997;53.278;9.708;2024-02-28T02:06:11;1.50;93.30
48208;DHT22;33997;53.278;9.708;2024-02-28T02:08:37;1.60;93.30
48208;DHT22;33997;53.278;9.708;2024-02-28T02:14:25;1.60;93.20
48208;DHT22;33997;53.278;9.708;2024-02-28T02:16:50;1.60;93.20
48208;DHT22;33997;53.278;9.708;2024-02-28T02:19:16;1.60;93.10
48208;DHT22;33997;53.278;9.708;2024-02-28T02:21:49;1.60;93.20
48208;DHT22;33997;53.278;9.708;2024-02-28T02:24:16;1.50;93.20
48208;DHT22;33997;53.278;9.708;2024-02-28T02:26:42;1.50;93.30
48208;DHT22;33997;53.278;9.708;2024-02-28T02:29:10;1.60;93.30
48208;DHT22;33997;53.278;9.708;2024-02-28T02:31:35;1.50;93.20
48208;DHT22;33997;53.278;9.708;2024-02-28T02:34:00;1.60;93.20
48208;DHT22;33997;53.278;9.708;2024-02-28T02:36:26;1.60;93.10
48208;DHT22;33997;53.278;9.708;2024-02-28T02:38:52;1.60;93.30
48208;DHT22;33997;53.278;9.708;2024-02-28T02:41:18;1.60;93.30
48208;DHT22;33997;53.278;9.708;2024-02-28T02:43:43;1.50;93.20
48208;DHT22;33997;53.278;9.708;2024-02-28T02:46:09;1.60;93.30
48208;DHT22;33997;53.278;9.708;2024-02-28T02:48:34;1.60;93.30
48208;DHT22;33997;53.278;9.708;2024-02-28T02:51:00;1.60;93.20
48208;DHT22;33997;53.278;9.708;2024-02-28T02:53:25;1.60;93.30
48208;DHT22;33997;53.278;9.708;2024-02-28T02:55:50;1.60;93.30
48208;DHT22;33997;53.278;9.708;2024-02-28T02:58:16;1.60;93.50
48208;DHT22;33997;53.278;9.708;2024-02-28T03:00:41;1.60;93.50
48208;DHT22;33997;53.278;9.708;2024-02-28T03:03:07;1.60;93.30
48208;DHT22;33997;53.278;9.708;2024-02-28T04:43:24;1.80;93.90
48208;DHT22;33997;53.278;9.708;2024-02-28T04:45:49;1.80;94.10
48208;DHT22;33997;53.278;9.708;2024-02-28T04:48:15;1.70;93.90
48208;DHT22;33997;53.278;9.708;2024-02-28T04:50:40;1.70;93.90
48208;DHT22;33997;53.278;9.708;2024-02-28T04:53:06;1.70;93.90
48208;DHT22;33997;53.278;9.708;2024-02-28T04:55:31;1.70;93.90
48208;DHT22;33997;53.278;9.708;2024-02-28T04:57:57;1.60;93.90
48208;DHT22;33997;53.278;9.708;2024-02-28T05:00:22;1.60;94.00
48208;DHT22;33997;53.278;9.708;2024-02-28T05:02:48;1.60;94.10
48208;DHT22;33997;53.278;9.708;2024-02-28T05:05:13;1.60;94.20
48208;DHT22;33997;53.278;9.708;2024-02-28T05:07:39;1.60;94.30
48208;DHT22;33997;53.278;9.708;2024-02-28T05:10:05;1.50;94.40
48208;DHT22;33997;53.278;9.708;2024-02-28T05:12:31;1.60;94.40
48208;DHT22;33997;53.278;9.708;2024-02-28T05:14:56;1.50;94.50
48208;DHT22;33997;53.278;9.708;2024-02-28T05:17:22;1.50;94.60
48208;DHT22;33997;53.278;9.708;2024-02-28T05:19:47;1.50;94.60
48208;DHT22;33997;53.278;9.708;2024-02-28T05:22:13;1.50;94.60
48208;DHT22;33997;53.278;9.708;2024-02-28T05:24:39;1.40;94.70
48208;DHT22;33997;53.278;9.708;2024-02-28T05:27:04;1.50;94.70
48208;DHT22;33997;53.278;9.708;2024-02-28T05:29:30;1.40;94.80
48208;DHT22;33997;53.278;9.708;2024-02-28T05:31:55;1.40;94.90
48208;DHT22;33997;53.278;9.708;2024-02-28T05:34:20;1.40;94.90
48208;DHT22;33997;53.278;9.708;2024-02-28T05:36:46;1.40;95.00
48208;DHT22;33997;53.278;9.708;2024-02-28T05:39:11;1.40;95.10
48208;DHT22;33997;53.278;9.708;2024-02-28T05:41:37;1.40;95.10
48208;DHT22;33997;53.278;9.708;2024-02-28T05:44:02;1.40;95.10
48208;DHT22;33997;53.278;9.708;2024-02-28T05:46:28;1.30;95.10
48208;DHT22;33997;53.278;9.708;2024-02-28T05:48:53;1.30;95.10
48208;DHT22;33997;53.278;9.708;2024-02-28T05:51:19;1.20;95.20
48208;DHT22;33997;53.278;9.708;2024-02-28T05:53:45;1.20;95.30
48208;DHT22;33997;53.278;9.708;2024-02-28T05:56:10;1.20;95.40
48208;DHT22;33997;53.278;9.708;2024-02-28T05:58:43;1.20;95.60
48208;DHT22;33997;53.278;9.708;2024-02-28T06:01:10;1.20;95.70
48208;DHT22;33997;53.278;9.708;2024-02-28T06:03:36;1.20;95.70
48208;DHT22;33997;53.278;9.708;2024-02-28T06:06:02;1.30;95.70
48208;DHT22;33997;53.278;9.708;2024-02-28T06:08:32;1.30;95.70
48208;DHT22;33997;53.278;9.708;2024-02-28T06:10:57;1.40;95.70
48208;DHT22;33997;53.278;9.708;2024-02-28T06:13:23;1.40;95.70
48208;DHT22;33997;53.278;9.708;2024-02-28T06:15:48;1.40;95.60
48208;DHT22;33997;53.278;9.708;2024-02-28T06:18:14;1.50;95.60
48208;DHT22;33997;53.278;9.708;2024-02-28T06:20:39;1.50;95.50
48208;DHT22;33997;53.278;9.708;2024-02-28T06:23:05;1.50;95.50
48208;DHT22;33997;53.278;9.708;2024-02-28T06:25:30;1.50;95.40
48208;DHT22;33997;53.278;9.708;2024-02-28T06:27:59;1.50;95.50
48208;DHT22;33997;53.278;9.708;2024-02-28T06:30:25;1.40;95.60
48208;DHT22;33997;53.278;9.708;2024-02-28T06:32:50;1.40;95.60
48208;DHT22;33997;53.278;9.708;2024-02-28T06:35:17;1.30;95.80
48208;DHT22;33997;53.278;9.708;2024-02-28T06:37:42;1.30;95.90
48208;DHT22;33997;53.278;9.708;2024-02-28T06:40:13;1.20;96.00
48208;DHT22;33997;53.278;9.708;2024-02-28T06:42:39;1.30;96.20
48208;DHT22;33997;53.278;9.708;2024-02-28T06:45:05;1.30;96.30
48208;DHT22;33997;53.278;9.708;2024-02-28T06:47:31;1.40;96.30
48208;DHT22;33997;53.278;9.708;2024-02-28T06:49:57;1.30;96.30
48208;DHT22;33997;53.278;9.708;2024-02-28T06:52:23;1.40;96.30
48208;DHT22;33997;53.278;9.708;2024-02-28T06:54:48;1.40;96.30
48208;DHT22;33997;53.278;9.708;2024-02-28T06:57:14;1.50;96.30
48208;DHT22;33997;53.278;9.708;2024-02-28T06:59:39;1.50;96.30
48208;DHT22;33997;53.278;9.708;2024-02-28T07:02:05;1.60;96.30
48208;DHT22;33997;53.278;9.708;2024-02-28T07:04:30;1.60;96.20
48208;DHT22;33997;53.278;9.708;2024-02-28T07:06:56;1.70;96.10
48208;DHT22;33997;53.278;9.708;2024-02-28T07:09:22;1.70;96.00
48208;DHT22;33997;53.278;9.708;2024-02-28T07:11:51;1.80;96.00
48208;DHT22;33997;53.278;9.708;2024-02-28T07:14:16;1.90;95.90
48208;DHT22;33997;53.278;9.708;2024-02-28T07:16:42;1.90;95.80
48208;DHT22;33997;53.278;9.708;2024-02-28T07:19:07;2.00;95.70
48208;DHT22;33997;53.278;9.708;2024-02-28T07:21:33;2.10;95.60
48208;DHT22;33997;53.278;9.708;2024-02-28T07:23:58;2.10;95.60
48208;DHT22;33997;53.278;9.708;2024-02-28T07:26:24;2.10;95.40
48208;DHT22;33997;53.278;9.708;2024-02-28T07:28:49;2.10;95.40
48208;DHT22;33997;53.278;9.708;2024-02-28T07:31:16;2.00;95.40
48208;DHT22;33997;53.278;9.708;2024-02-28T07:33:41;2.10;95.40
48208;DHT22;33997;53.278;9.708;2024-02-28T07:36:07;2.10;95.50
48208;DHT22;33997;53.278;9.708;2024-02-28T07:38:32;2.20;95.30
48208;DHT22;33997;53.278;9.708;2024-02-28T07:40:58;2.20;95.20
48208;DHT22;33997;53.278;9.708;2024-02-28T07:43:23;2.30;95.10
48208;DHT22;33997;53.278;9.708;2024-02-28T07:45:49;2.30;95.00
48208;DHT22;33997;53.278;9.708;2024-02-28T07:48:14;2.30;94.90
48208;DHT22;33997;53.278;9.708;2024-02-28T07:50:45;2.30;94.70
48208;DHT22;33997;53.278;9.708;2024-02-28T07:53:12;2.30;94.80
48208;DHT22;33997;53.278;9.708;2024-02-28T07:55:38;2.40;94.70
48208;DHT22;33997;53.278;9.708;2024-02-28T07:58:04;2.40;94.80
48208;DHT22;33997;53.278;9.708;2024-02-28T08:00:31;2.50;94.80
48208;DHT22;33997;53.278;9.708;2024-02-28T08:02:58;2.60;94.50
48208;DHT22;33997;53.278;9.708;2024-02-28T08:05:23;2.60;94.70
48208;DHT22;33997;53.278;9.708;2024-02-28T08:07:49;2.60;94.40
48208;DHT22;33997;53.278;9.708;2024-02-28T08:10:14;2.70;94.40
48208;DHT22;33997;53.278;9.708;2024-02-28T08:12:40;2.80;94.40
48208;DHT22;33997;53.278;9.708;2024-02-28T08:15:06;2.80;94.00
48208;DHT22;33997;53.278;9.708;2024-02-28T08:17:31;3.00;94.20
48208;DHT22;33997;53.278;9.708;2024-02-28T08:19:57;3.10;94.20
48208;DHT22;33997;53.278;9.708;2024-02-28T08:22:22;3.20;93.50
48208;DHT22;33997;53.278;9.708;2024-02-28T08:24:51;3.30;93.70
48208;DHT22;33997;53.278;9.708;2024-02-28T08:27:17;3.20;92.80
48208;DHT22;33997;53.278;9.708;2024-02-28T08:29:42;3.30;93.20
48208;DHT22;33997;53.278;9.708;2024-02-28T08:32:10;3.50;92.90
48208;DHT22;33997;53.278;9.708;2024-02-28T08:34:36;3.50;92.40
48208;DHT22;33997;53.278;9.708;2024-02-28T08:37:02;3.30;92.30
48208;DHT22;33997;53.278;9.708;2024-02-28T08:39:27;3.50;92.90
48208;DHT22;33997;53.278;9.708;2024-02-28T08:41:53;3.70;92.40
48208;DHT22;33997;53.278;9.708;2024-02-28T08:44:19;3.70;92.70
48208;DHT22;33997;53.278;9.708;2024-02-28T08:46:46;3.80;92.10
48208;DHT22;33997;53.278;9.708;2024-02-28T08:49:13;3.90;92.40
48208;DHT22;33997;53.278;9.708;2024-02-28T08:51:39;4.30;92.60
48208;DHT22;33997;53.278;9.708;2024-02-28T08:54:05;4.30;91.00
48208;DHT22;33997;53.278;9.708;2024-02-28T08:56:31;4.00;90.70
48208;DHT22;33997;53.278;9.708;2024-02-28T08:58:56;4.40;91.90
48208;DHT22;33997;53.278;9.708;2024-02-28T09:01:22;4.40;91.20
48208;DHT22;33997;53.278;9.708;2024-02-28T09:03:47;4.70;90.50
48208;DHT22;33997;53.278;9.708;2024-02-28T09:06:13;4.40;89.70
48208;DHT22;33997;53.278;9.708;2024-02-28T09:08:38;4.60;91.00
48208;DHT22;33997;53.278;9.708;2024-02-28T09:11:03;4.90;90.00
48208;DHT22;33997;53.278;9.708;2024-02-28T09:13:30;5.10;88.80
48208;DHT22;33997;53.278;9.708;2024-02-28T09:15:56;5.70;89.20
48208;DHT22;33997;53.278;9.708;2024-02-28T09:18:22;5.50;87.40
48208;DHT22;33997;53.278;9.708;2024-02-28T09:20:47;5.50;87.80
48208;DHT22;33997;53.278;9.708;2024-02-28T09:23:13;5.50;88.00
48208;DHT22;33997;53.278;9.708;2024-02-28T09:25:39;5.50;87.30
48208;DHT22;33997;53.278;9.708;2024-02-28T09:28:05;5.20;87.70
48208;DHT22;33997;53.278;9.708;2024-02-28T09:30:31;5.30;87.70
48208;DHT22;33997;53.278;9.708;2024-02-28T09:32:57;5.10;88.10
48208;DHT22;33997;53.278;9.708;2024-02-28T09:35:22;5.40;89.20
48208;DHT22;33997;53.278;9.708;2024-02-28T09:37:48;6.30;88.70
48208;DHT22;33997;53.278;9.708;2024-02-28T09:40:13;6.20;85.40
48208;DHT22;33997;53.278;9.708;2024-02-28T09:42:39;5.90;86.30
48208;DHT22;33997;53.278;9.708;2024-02-28T09:45:07;5.70;86.90
48208;DHT22;33997;53.278;9.708;2024-02-28T09:47:33;5.90;86.80
48208;DHT22;33997;53.278;9.708;2024-02-28T09:50:00;6.00;86.30
48208;DHT22;33997;53.278;9.708;2024-02-28T09:52:26;5.80;86.70
48208;DHT22;33997;53.278;9.708;2024-02-28T09:54:53;5.80;86.30
48208;DHT22;33997;53.278;9.708;2024-02-28T09:57:18;5.80;86.50
48208;DHT22;33997;53.278;9.708;2024-02-28T09:59:44;6.10;87.00
48208;DHT22;33997;53.278;9.708;2024-02-28T10:02:10;6.00;86.50
48208;DHT22;33997;53.278;9.708;2024-02-28T10:04:37;6.20;87.00
48208;DHT22;33997;53.278;9.708;2024-02-28T10:07:13;6.40;86.40
48208;DHT22;33997;53.278;9.708;2024-02-28T10:09:39;6.40;86.10
48208;DHT22;33997;53.278;9.708;2024-02-28T10:12:05;6.30;85.70
48208;DHT22;33997;53.278;9.708;2024-02-28T10:14:30;6.00;86.00
48208;DHT22;33997;53.278;9.708;2024-02-28T10:16:56;6.10;86.90
48208;DHT22;33997;53.278;9.708;2024-02-28T10:19:21;5.90;86.30
48208;DHT22;33997;53.278;9.708;2024-02-28T10:21:47;5.90;85.90
48208;DHT22;33997;53.278;9.708;2024-02-28T10:24:12;6.00;86.30
48208;DHT22;33997;53.278;9.708;2024-02-28T10:26:43;6.10;86.10
48208;DHT22;33997;53.278;9.708;2024-02-28T10:29:09;6.30;86.10
48208;DHT22;33997;53.278;9.708;2024-02-28T10:31:34;6.50;86.20
48208;DHT22;33997;53.278;9.708;2024-02-28T10:34:02;6.80;85.40
48208;DHT22;33997;53.278;9.708;2024-02-28T10:36:30;6.50;85.10
48208;DHT22;33997;53.278;9.708;2024-02-28T10:38:57;6.80;85.30
48208;DHT22;33997;53.278;9.708;2024-02-28T10:41:25;7.00;83.50
48208;DHT22;33997;53.278;9.708;2024-02-28T10:43:51;7.10;84.00
48208;DHT22;33997;53.278;9.708;2024-02-28T10:46:20;7.70;82.80
48208;DHT22;33997;53.278;9.708;2024-02-28T10:48:46;8.30;81.80
48208;DHT22;33997;53.278;9.708;2024-02-28T10:51:15;8.10;80.50
48208;DHT22;33997;53.278;9.708;2024-02-28T10:53:47;8.00;81.20
48208;DHT22;33997;53.278;9.708;2024-02-28T10:56:14;8.10;81.20
48208;DHT22;33997;53.278;9.708;2024-02-28T10:58:52;8.30;80.30
48208;DHT22;33997;53.278;9.708;2024-02-28T11:01:18;8.60;79.20
48208;DHT22;33997;53.278;9.708;2024-02-28T11:03:44;8.60;79.30
48208;DHT22;33997;53.278;9.708;2024-02-28T11:06:21;8.20;79.50
48208;DHT22;33997;53.278;9.708;2024-02-28T11:08:48;8.10;80.30
48208;DHT22;33997;53.278;9.708;2024-02-28T11:11:14;8.00;79.40
48208;DHT22;33997;53.278;9.708;2024-02-28T11:13:54;7.60;80.20
48208;DHT22;33997;53.278;9.708;2024-02-28T11:16:33;7.60;81.70
48208;DHT22;33997;53.278;9.708;2024-02-28T11:18:59;7.50;82.20
48208;DHT22;33997;53.278;9.708;2024-02-28T11:21:26;7.60;81.60
48208;DHT22;33997;53.278;9.708;2024-02-28T11:23:52;7.60;82.30
48208;DHT22;33997;53.278;9.708;2024-02-28T11:26:18;7.40;82.00
48208;DHT22;33997;53.278;9.708;2024-02-28T11:28:44;7.40;82.60
48208;DHT22;33997;53.278;9.708;2024-02-28T11:31:09;7.20;83.10
48208;DHT22;33997;53.278;9.708;2024-02-28T11:33:38;7.20;82.90
48208;DHT22;33997;53.278;9.708;2024-02-28T11:36:04;7.30;82.90
48208;DHT22;33997;53.278;9.708;2024-02-28T11:38:29;7.10;82.70
48208;DHT22;33997;53.278;9.708;2024-02-28T11:40:55;7.20;83.30
48208;DHT22;33997;53.278;9.708;2024-02-28T11:43:21;7.20;84.10
48208;DHT22;33997;53.278;9.708;2024-02-28T11:45:46;7.30;83.40
48208;DHT22;33997;53.278;9.708;2024-02-28T11:48:13;7.10;83.50
48208;DHT22;33997;53.278;9.708;2024-02-28T11:50:39;7.40;83.80
48208;DHT22;33997;53.278;9.708;2024-02-28T11:53:08;7.20;83.20
48208;DHT22;33997;53.278;9.708;2024-02-28T11:55:34;7.30;83.70
48208;DHT22;33997;53.278;9.708;2024-02-28T11:58:00;7.30;83.20
48208;DHT22;33997;53.278;9.708;2024-02-28T12:00:25;7.00;83.50
48208;DHT22;33997;53.278;9.708;2024-02-28T12:02:51;7.00;84.50
48208;DHT22;33997;53.278;9.708;2024-02-28T12:05:18;6.90;83.30
48208;DHT22;33997;53.278;9.708;2024-02-28T12:07:45;6.80;84.50
48208;DHT22;33997;53.278;9.708;2024-02-28T12:10:10;6.90;84.30
48208;DHT22;33997;53.278;9.708;2024-02-28T12:12:38;7.00;83.80
48208;DHT22;33997;53.278;9.708;2024-02-28T12:15:05;7.20;83.50
48208;DHT22;33997;53.278;9.708;2024-02-28T12:17:31;7.00;83.60
48208;DHT22;33997;53.278;9.708;2024-02-28T12:19:59;7.40;84.00
48208;DHT22;33997;53.278;9.708;2024-02-28T12:22:24;7.60;83.10
48208;DHT22;33997;53.278;9.708;2024-02-28T12:24:50;7.60;83.80
48208;DHT22;33997;53.278;9.708;2024-02-28T12:27:15;7.10;83.40
48208;DHT22;33997;53.278;9.708;2024-02-28T12:29:40;7.10;84.10
48208;DHT22;33997;53.278;9.708;2024-02-28T12:32:07;7.10;83.80
48208;DHT22;33997;53.278;9.708;2024-02-28T12:34:33;7.30;84.30
48208;DHT22;33997;53.278;9.708;2024-02-28T12:36:58;7.50;84.30
48208;DHT22;33997;53.278;9.708;2024-02-28T12:39:25;7.20;83.90
48208;DHT22;33997;53.278;9.708;2024-02-28T12:41:50;7.10;84.70
48208;DHT22;33997;53.278;9.708;2024-02-28T12:44:16;7.10;85.10
48208;DHT22;33997;53.278;9.708;2024-02-28T12:46:41;6.90;85.30
48208;DHT22;33997;53.278;9.708;2024-02-28T12:49:07;6.80;85.80
48208;DHT22;33997;53.278;9.708;2024-02-28T12:51:40;6.70;86.30
48208;DHT22;33997;53.278;9.708;2024-02-28T12:54:09;6.90;86.40
48208;DHT22;33997;53.278;9.708;2024-02-28T12:56:38;7.00;86.60
48208;DHT22;33997;53.278;9.708;2024-02-28T12:59:05;6.60;86.20
48208;DHT22;33997;53.278;9.708;2024-02-28T13:01:31;6.60;86.30
48208;DHT22;33997;53.278;9.708;2024-02-28T13:03:57;6.50;86.50
48208;DHT22;33997;53.278;9.708;2024-02-28T13:06:22;6.60;86.80
48208;DHT22;33997;53.278;9.708;2024-02-28T13:08:48;6.90;86.30
48208;DHT22;33997;53.278;9.708;2024-02-28T13:11:22;7.10;85.70
48208;DHT22;33997;53.278;9.708;2024-02-28T13:13:48;7.30;85.80
48208;DHT22;33997;53.278;9.708;2024-02-28T13:16:15;7.10;85.50
48208;DHT22;33997;53.278;9.708;2024-02-28T13:18:40;7.10;85.50
48208;DHT22;33997;53.278;9.708;2024-02-28T13:21:06;7.00;85.40
48208;DHT22;33997;53.278;9.708;2024-02-28T13:23:32;6.70;86.70
48208;DHT22;33997;53.278;9.708;2024-02-28T13:25:57;6.40;87.10
48208;DHT22;33997;53.278;9.708;2024-02-28T13:28:23;6.30;87.80
48208;DHT22;33997;53.278;9.708;2024-02-28T13:31:01;6.20;88.20
48208;DHT22;33997;53.278;9.708;2024-02-28T13:33:27;6.20;88.80
48208;DHT22;33997;53.278;9.708;2024-02-28T13:35:53;6.10;89.20
48208;DHT22;33997;53.278;9.708;2024-02-28T13:38:19;5.90;89.90
48208;DHT22;33997;53.278;9.708;2024-02-28T13:40:49;5.70;90.10
48208;DHT22;33997;53.278;9.708;2024-02-28T13:43:15;5.80;90.40
48208;DHT22;33997;53.278;9.708;2024-02-28T13:45:46;5.80;90.50
48208;DHT22;33997;53.278;9.708;2024-02-28T13:48:16;6.10;90.10
48208;DHT22;33997;53.278;9.708;2024-02-28T13:50:43;6.20;89.80
48208;DHT22;33997;53.278;9.708;2024-02-28T13:53:08;6.10;89.70
48208;DHT22;33997;53.278;9.708;2024-02-28T13:55:34;6.20;89.90
48208;DHT22;33997;53.278;9.708;2024-02-28T13:57:59;6.20;89.90
48208;DHT22;33997;53.278;9.708;2024-02-28T14:00:25;6.20;89.80
48208;DHT22;33997;53.278;9.708;2024-02-28T14:02:50;6.10;90.10
48208;DHT22;33997;53.278;9.708;2024-02-28T14:05:16;5.70;90.70
48208;DHT22;33997;53.278;9.708;2024-02-28T14:07:41;5.70;91.60
48208;DHT22;33997;53.278;9.708;2024-02-28T14:10:07;5.80;91.50
48208;DHT22;33997;53.278;9.708;2024-02-28T14:12:32;5.80;91.60
48208;DHT22;33997;53.278;9.708;2024-02-28T14:14:58;5.80;91.60
48208;DHT22;33997;53.278;9.708;2024-02-28T14:17:23;5.80;91.60
48208;DHT22;33997;53.278;9.708;2024-02-28T14:19:49;5.70;91.90
48208;DHT22;33997;53.278;9.708;2024-02-28T14:22:15;5.70;91.90
48208;DHT22;33997;53.278;9.708;2024-02-28T14:24:40;5.50;92.10
48208;DHT22;33997;53.278;9.708;2024-02-28T14:27:06;5.40;92.60
48208;DHT22;33997;53.278;9.708;2024-02-28T14:29:31;5.40;93.00
48208;DHT22;33997;53.278;9.708;2024-02-28T14:31:57;5.40;93.00
48208;DHT22;33997;53.278;9.708;2024-02-28T14:34:22;5.60;93.00
48208;DHT22;33997;53.278;9.708;2024-02-28T14:36:48;5.50;93.00
48208;DHT22;33997;53.278;9.708;2024-02-28T14:39:14;5.60;93.40
48208;DHT22;33997;53.278;9.708;2024-02-28T14:41:42;5.50;93.00
48208;DHT22;33997;53.278;9.708;2024-02-28T14:44:09;5.40;92.80
48208;DHT22;33997;53.278;9.708;2024-02-28T14:46:35;5.40;93.00
48208;DHT22;33997;53.278;9.708;2024-02-28T14:49:00;5.30;93.10
48208;DHT22;33997;53.278;9.708;2024-02-28T14:51:26;5.20;93.60
48208;DHT22;33997;53.278;9.708;2024-02-28T14:53:51;5.30;93.50
48208;DHT22;33997;53.278;9.708;2024-02-28T14:56:17;5.40;93.50
48208;DHT22;33997;53.278;9.708;2024-02-28T14:58:44;5.40;93.30
48208;DHT22;33997;53.278;9.708;2024-02-28T15:01:10;5.30;93.40
48208;DHT22;33997;53.278;9.708;2024-02-28T15:03:35;5.40;93.40
48208;DHT22;33997;53.278;9.708;2024-02-28T15:06:01;5.50;93.40
48208;DHT22;33997;53.278;9.708;2024-02-28T15:08:26;5.50;93.00
48208;DHT22;33997;53.278;9.708;2024-02-28T15:10:52;5.40;93.30
48208;DHT22;33997;53.278;9.708;2024-02-28T15:13:18;5.40;93.10
48208;DHT22;33997;53.278;9.708;2024-02-28T15:15:43;5.40;93.10
48208;DHT22;33997;53.278;9.708;2024-02-28T15:18:09;5.40;93.00
48208;DHT22;33997;53.278;9.708;2024-02-28T15:20:34;5.40;93.00
48208;DHT22;33997;53.278;9.708;2024-02-28T15:23:00;5.40;93.10
48208;DHT22;33997;53.278;9.708;2024-02-28T15:25:26;5.40;93.10
48208;DHT22;33997;53.278;9.708;2024-02-28T15:27:51;5.50;93.00
48208;DHT22;33997;53.278;9.708;2024-02-28T15:30:17;5.50;93.10
48208;DHT22;33997;53.278;9.708;2024-02-28T15:32:43;5.30;92.90
48208;DHT22;33997;53.278;9.708;2024-02-28T15:35:10;5.20;93.40
48208;DHT22;33997;53.278;9.708;2024-02-28T15:37:36;5.20;93.50
48208;DHT22;33997;53.278;9.708;2024-02-28T15:40:02;5.10;93.50
48208;DHT22;33997;53.278;9.708;2024-02-28T15:42:32;5.10;93.50
48208;DHT22;33997;53.278;9.708;2024-02-28T15:44:58;5.10;93.50
48208;DHT22;33997;53.278;9.708;2024-02-28T15:47:23;5.10;93.40
48208;DHT22;33997;53.278;9.708;2024-02-28T15:49:49;5.10;93.70
48208;DHT22;33997;53.278;9.708;2024-02-28T15:52:14;5.20;93.60
48208;DHT22;33997;53.278;9.708;2024-02-28T15:54:40;5.20;93.50
48208;DHT22;33997;53.278;9.708;2024-02-28T15:57:05;5.20;93.60
48208;DHT22;33997;53.278;9.708;2024-02-28T15:59:31;5.10;93.40
48208;DHT22;33997;53.278;9.708;2024-02-28T16:01:56;5.10;93.60
48208;DHT22;33997;53.278;9.708;2024-02-28T16:04:23;5.20;93.50
48208;DHT22;33997;53.278;9.708;2024-02-28T16:06:49;5.20;93.30
48208;DHT22;33997;53.278;9.708;2024-02-28T16:09:15;5.20;93.40
48208;DHT22;33997;53.278;9.708;2024-02-28T16:11:42;5.20;93.40
48208;DHT22;33997;53.278;9.708;2024-02-28T16:14:08;5.20;93.40
48208;DHT22;33997;53.278;9.708;2024-02-28T16:16:33;5.20;93.50
48208;DHT22;33997;53.278;9.708;2024-02-28T16:18:59;5.20;93.50
48208;DHT22;33997;53.278;9.708;2024-02-28T16:21:24;5.10;93.60
48208;DHT22;33997;53.278;9.708;2024-02-28T16:23:50;5.10;93.70
48208;DHT22;33997;53.278;9.708;2024-02-28T16:26:15;5.10;94.00
48208;DHT22;33997;53.278;9.708;2024-02-28T16:28:41;5.10;93.90
48208;DHT22;33997;53.278;9.708;2024-02-28T16:31:07;5.00;94.00
48208;DHT22;33997;53.278;9.708;2024-02-28T16:33:33;5.00;94.20
48208;DHT22;33997;53.278;9.708;2024-02-28T16:35:58;4.90;94.30
48208;DHT22;33997;53.278;9.708;2024-02-28T16:38:24;4.90;94.40
48208;DHT22;33997;53.278;9.708;2024-02-28T16:40:49;4.80;94.50
48208;DHT22;33997;53.278;9.708;2024-02-28T16:43:15;4.80;94.60
48208;DHT22;33997;53.278;9.708;2024-02-28T16:45:40;4.80;94.70
48208;DHT22;33997;53.278;9.708;2024-02-28T16:48:06;4.70;94.80
48208;DHT22;33997;53.278;9.708;2024-02-28T16:50:34;4.70;94.90
48208;DHT22;33997;53.278;9.708;2024-02-28T16:53:00;4.60;95.10
48208;DHT22;33997;53.278;9.708;2024-02-28T16:55:25;4.60;95.30
48208;DHT22;33997;53.278;9.708;2024-02-28T16:57:51;4.60;95.40
48208;DHT22;33997;53.278;9.708;2024-02-28T17:00:17;4.50;95.50
48208;DHT22;33997;53.278;9.708;2024-02-28T17:02:44;4.50;95.60
48208;DHT22;33997;53.278;9.708;2024-02-28T17:05:10;4.50;95.70
48208;DHT22;33997;53.278;9.708;2024-02-28T17:07:35;4.50;95.90
48208;DHT22;33997;53.278;9.708;2024-02-28T17:10:01;4.50;95.90
48208;DHT22;33997;53.278;9.708;2024-02-28T17:12:27;4.50;95.90
48208;DHT22;33997;53.278;9.708;2024-02-28T17:14:53;4.60;95.90
48208;DHT22;33997;53.278;9.708;2024-02-28T17:17:21;4.60;95.80
48208;DHT22;33997;53.278;9.708;2024-02-28T17:19:47;4.60;95.90
48208;DHT22;33997;53.278;9.708;2024-02-28T17:22:13;4.60;95.90